createdAt,value
2019-01-23T00:00:14.950Z,41.23
2019-01-23T00:02:44.911Z,38.07
2019-01-23T00:05:13.286Z,33.37
2019-01-23T00:07:41.654Z,32.73
2019-01-23T00:10:12.328Z,37.60
2019-01-23T00:12:40.749Z,37.17
2019-01-23T00:15:09.125Z,37.67
2019-01-23T00:17:43.070Z,37.63
2019-01-23T00:20:13.046Z,37.43
2019-01-23T00:22:41.415Z,40.03
2019-01-23T00:25:09.835Z,33.63
2019-01-23T00:27:38.202Z,34.93
2019-01-23T00:30:08.210Z,35.20
2019-01-23T00:32:36.658Z,31.10
2019-01-23T00:35:05.401Z,34.33
2019-01-23T00:37:34.838Z,33.93
2019-01-23T00:40:03.973Z,36.80
2019-01-23T00:42:32.354Z,27.33
2019-01-23T00:45:00.724Z,31.50
2019-01-23T00:47:29.103Z,33.90
2019-01-23T00:49:57.469Z,35.17
2019-01-23T00:52:27.441Z,32.37
2019-01-23T00:54:55.822Z,32.73
2019-01-23T00:57:24.196Z,32.47
2019-01-23T00:59:53.350Z,32.17
2019-01-23T01:02:21.734Z,35.00
2019-01-23T01:04:50.678Z,33.13
2019-01-23T01:07:19.050Z,31.90
2019-01-23T01:09:47.426Z,31.83
2019-01-23T01:12:17.634Z,27.83
2019-01-23T01:14:46.016Z,26.97
2019-01-23T01:17:14.384Z,29.03
2019-01-23T01:19:42.762Z,30.63
2019-01-23T01:22:11.153Z,31.23
2019-01-23T01:24:39.521Z,36.07
2019-01-23T01:27:07.894Z,27.40
2019-01-23T01:29:36.265Z,30.27
2019-01-23T01:32:04.678Z,29.13
2019-01-23T01:34:34.683Z,32.13
2019-01-23T01:37:03.055Z,30.33
2019-01-23T01:39:31.713Z,29.83
2019-01-23T01:42:00.094Z,32.53
2019-01-23T01:44:28.458Z,31.23
2019-01-23T01:46:56.842Z,31.80
2019-01-23T01:49:25.201Z,34.40
2019-01-23T01:51:53.573Z,33.87
2019-01-23T01:54:21.941Z,33.00
2019-01-23T01:56:50.318Z,32.93
2019-01-23T01:59:18.689Z,31.63
2019-01-23T02:01:47.066Z,35.17
2019-01-23T02:04:15.450Z,34.20
2019-01-23T02:06:43.821Z,34.10
2019-01-23T02:09:12.198Z,32.20
2019-01-23T02:11:40.594Z,34.13
2019-01-23T02:14:08.970Z,34.57
2019-01-23T02:16:37.350Z,31.37
2019-01-23T02:19:05.729Z,31.63
2019-01-23T02:21:34.110Z,35.10
2019-01-23T02:24:02.490Z,36.30
2019-01-23T02:26:30.875Z,35.50
2019-01-23T02:29:02.202Z,30.83
2019-01-23T02:31:32.431Z,39.70
2019-01-23T02:34:00.878Z,37.13
2019-01-23T02:36:29.238Z,35.40
2019-01-23T02:38:59.657Z,28.77
2019-01-23T02:41:28.032Z,38.90
2019-01-23T02:43:56.698Z,27.87
2019-01-23T02:46:25.069Z,41.70
2019-01-23T02:48:54.807Z,39.80
2019-01-23T02:51:23.186Z,38.07
2019-01-23T02:53:51.562Z,38.13
2019-01-23T02:56:19.942Z,37.23
2019-01-23T02:58:48.323Z,39.83
2019-01-23T03:01:16.702Z,39.83
2019-01-23T03:03:45.075Z,34.93
2019-01-23T03:06:13.449Z,34.37
2019-01-23T03:08:41.819Z,39.10
2019-01-23T03:11:10.185Z,37.53
2019-01-23T03:13:38.558Z,30.73
2019-01-23T03:16:06.942Z,37.47
2019-01-23T03:18:35.326Z,34.90
2019-01-23T03:21:03.704Z,37.17
2019-01-23T03:23:33.961Z,32.43
2019-01-23T03:26:02.327Z,34.17
2019-01-23T03:28:32.782Z,37.00
2019-01-23T03:31:02.389Z,35.73
2019-01-23T03:33:30.758Z,38.80
2019-01-23T03:35:59.132Z,35.87
2019-01-23T03:38:27.498Z,37.13
2019-01-23T03:40:55.874Z,34.70
2019-01-23T03:43:24.238Z,44.63
2019-01-23T03:45:52.617Z,39.00
2019-01-23T03:48:20.979Z,41.80
2019-01-23T03:50:49.499Z,37.70
2019-01-23T03:53:17.865Z,34.30
2019-01-23T03:55:46.235Z,41.87
2019-01-23T03:58:16.251Z,38.40
2019-01-23T04:00:44.617Z,35.93
2019-01-23T04:03:13.014Z,36.90
2019-01-23T04:05:41.379Z,41.93
2019-01-23T04:08:09.747Z,42.33
2019-01-23T04:10:38.089Z,40.20
2019-01-23T04:13:06.435Z,41.57
2019-01-23T04:15:34.780Z,41.83
2019-01-23T04:18:03.133Z,39.97
2019-01-23T04:20:33.109Z,33.27
2019-01-23T04:23:01.462Z,37.13
2019-01-23T04:25:30.094Z,37.17
2019-01-23T04:27:59.357Z,37.33
2019-01-23T04:30:27.713Z,33.17
2019-01-23T04:32:56.067Z,39.73
2019-01-23T04:35:24.418Z,40.40
2019-01-23T04:37:52.756Z,40.13
2019-01-23T04:40:22.828Z,39.13
2019-01-23T04:42:51.179Z,39.80
2019-01-23T04:45:19.524Z,43.20
2019-01-23T04:47:49.332Z,40.07
2019-01-23T04:50:18.198Z,35.97
2019-01-23T04:52:48.193Z,38.80
2019-01-23T04:55:16.538Z,41.70
2019-01-23T04:57:44.893Z,43.40
2019-01-23T05:00:14.884Z,38.53
2019-01-23T05:02:43.225Z,42.87
2019-01-23T05:05:11.575Z,40.00
2019-01-23T05:07:39.921Z,40.47
2019-01-23T05:10:08.273Z,42.67
2019-01-23T05:12:36.616Z,44.17
2019-01-23T05:15:05.840Z,44.47
2019-01-23T05:17:34.185Z,45.13
2019-01-23T05:20:02.796Z,42.13
2019-01-23T05:22:31.150Z,40.93
2019-01-23T05:25:00.694Z,44.23
2019-01-23T05:27:29.040Z,39.07
2019-01-23T05:29:57.389Z,42.10
2019-01-23T05:32:25.999Z,43.13
2019-01-23T05:34:55.541Z,42.90
2019-01-23T05:37:23.874Z,40.73
2019-01-23T05:39:52.253Z,46.17
2019-01-23T05:42:21.346Z,43.27
2019-01-23T05:44:49.879Z,41.77
2019-01-23T05:47:18.238Z,46.10
2019-01-23T05:49:46.582Z,47.70
2019-01-23T05:52:14.940Z,39.33
2019-01-23T05:54:43.272Z,43.67
2019-01-23T05:57:14.497Z,45.17
2019-01-23T05:59:43.713Z,41.60
2019-01-23T06:02:12.071Z,41.90
2019-01-23T06:04:43.059Z,41.77
2019-01-23T06:07:12.557Z,44.13
2019-01-23T06:09:40.917Z,38.73
2019-01-23T06:12:10.535Z,40.10
2019-01-23T06:14:38.875Z,43.87
2019-01-23T06:17:07.227Z,39.83
2019-01-23T06:19:35.561Z,45.30
2019-01-23T06:22:03.905Z,42.37
2019-01-23T06:24:32.264Z,40.03
2019-01-23T06:27:02.086Z,40.27
2019-01-23T06:29:30.457Z,48.43
2019-01-23T06:31:58.809Z,47.67
2019-01-23T06:34:28.441Z,42.70
2019-01-23T06:36:56.798Z,43.83
2019-01-23T06:39:27.687Z,39.07
2019-01-23T06:41:56.029Z,45.03
2019-01-23T06:44:29.502Z,40.63
2019-01-23T06:46:57.847Z,40.03
2019-01-23T06:49:27.658Z,44.47
2019-01-23T06:51:56.011Z,41.40
2019-01-23T06:54:25.336Z,38.57
2019-01-23T06:56:53.706Z,43.23
2019-01-23T06:59:22.050Z,33.63
2019-01-23T07:01:50.389Z,40.80
2019-01-23T07:04:20.709Z,40.50
2019-01-23T07:06:49.098Z,39.37
2019-01-23T07:09:18.713Z,40.83
2019-01-23T07:11:48.224Z,45.10
2019-01-23T07:14:17.845Z,40.63
2019-01-23T07:16:47.433Z,40.03
2019-01-23T07:19:15.881Z,45.27
2019-01-23T07:21:44.225Z,43.67
2019-01-23T07:24:12.620Z,44.47
2019-01-23T07:26:40.981Z,41.93
2019-01-23T07:29:09.330Z,40.27
2019-01-23T07:31:38.990Z,42.03
2019-01-23T07:34:07.343Z,41.53
2019-01-23T07:36:36.924Z,44.73
2019-01-23T07:39:08.041Z,40.10
2019-01-23T07:41:36.389Z,35.93
2019-01-23T07:44:04.869Z,41.13
2019-01-23T07:46:33.229Z,39.00
2019-01-23T07:49:01.582Z,40.17
2019-01-23T07:51:32.078Z,45.50
2019-01-23T07:54:03.622Z,42.90
2019-01-23T07:56:33.198Z,38.00
2019-01-23T07:59:02.317Z,41.27
2019-01-23T08:01:31.663Z,33.57
2019-01-23T08:03:59.990Z,47.53
2019-01-23T08:06:28.341Z,43.90
2019-01-23T08:08:56.693Z,38.97
2019-01-23T08:11:25.042Z,41.50
2019-01-23T08:13:54.668Z,43.27
2019-01-23T08:16:23.346Z,40.60
2019-01-23T08:18:51.690Z,43.00
2019-01-23T08:21:21.234Z,45.87
2019-01-23T08:23:49.572Z,36.10
2019-01-23T08:26:17.929Z,42.93
2019-01-23T08:28:46.829Z,44.03
2019-01-23T08:31:15.177Z,41.93
2019-01-23T08:33:44.115Z,40.40
2019-01-23T08:36:12.453Z,41.13
2019-01-23T08:38:40.797Z,43.00
2019-01-23T08:41:09.140Z,41.83
2019-01-23T08:43:37.517Z,38.20
2019-01-23T08:46:08.522Z,48.87
2019-01-23T08:48:39.102Z,41.33
2019-01-23T08:51:09.092Z,42.93
2019-01-23T08:53:38.338Z,41.30
2019-01-23T08:56:06.682Z,48.50
2019-01-23T08:58:35.034Z,40.13
2019-01-23T09:01:04.452Z,45.70
2019-01-23T09:03:32.834Z,40.63
2019-01-23T09:06:01.182Z,44.77
2019-01-23T09:08:29.525Z,43.93
2019-01-23T09:10:57.881Z,46.17
2019-01-23T09:13:27.212Z,48.00
2019-01-23T09:15:56.870Z,43.90
2019-01-23T09:18:26.397Z,39.47
2019-01-23T09:20:54.930Z,39.77
2019-01-23T09:23:23.274Z,46.07
2019-01-23T09:25:51.718Z,51.43
2019-01-23T09:28:20.120Z,53.57
2019-01-23T09:30:52.952Z,43.60
2019-01-23T09:33:30.680Z,46.20
2019-01-23T09:36:08.085Z,42.97
2019-01-23T09:38:47.359Z,46.50
2019-01-23T09:41:33.501Z,43.80
2019-01-23T09:44:07.793Z,44.10
2019-01-23T09:46:45.145Z,43.87
2019-01-23T09:49:17.861Z,46.93
2019-01-23T09:52:02.505Z,54.47
2019-01-23T09:54:32.006Z,45.13
2019-01-23T09:57:00.456Z,46.10
2019-01-23T09:59:28.822Z,49.77
2019-01-23T10:01:57.173Z,44.93
2019-01-23T10:04:25.576Z,48.20
2019-01-23T10:06:53.927Z,43.87
2019-01-23T10:09:25.657Z,46.70
2019-01-23T10:11:55.546Z,41.73
2019-01-23T10:14:28.313Z,46.20
2019-01-23T10:16:56.656Z,43.50
2019-01-23T10:19:27.098Z,44.13
2019-01-23T10:21:56.951Z,53.17
2019-01-23T10:24:27.923Z,47.23
2019-01-23T10:26:56.701Z,45.07
2019-01-23T10:29:25.869Z,48.07
2019-01-23T10:31:54.221Z,46.00
2019-01-23T10:34:24.215Z,48.77
2019-01-23T10:36:52.593Z,54.00
2019-01-23T10:39:20.954Z,50.17
2019-01-23T10:41:49.298Z,46.23
2019-01-23T10:44:17.650Z,46.40
2019-01-23T10:46:47.524Z,47.13
2019-01-23T10:49:16.142Z,45.37
2019-01-23T10:51:45.853Z,53.20
2019-01-23T10:54:14.193Z,44.80
2019-01-23T10:56:42.537Z,47.23
2019-01-23T10:59:11.950Z,43.90
2019-01-23T11:01:42.097Z,46.23
2019-01-23T11:04:11.858Z,43.53
2019-01-23T11:06:42.257Z,47.90
2019-01-23T11:09:12.296Z,49.77
2019-01-23T11:11:40.855Z,50.60
2019-01-23T11:14:09.281Z,50.57
2019-01-23T11:16:37.628Z,50.70
2019-01-23T11:19:05.960Z,48.50
2019-01-23T11:21:36.962Z,43.23
2019-01-23T11:24:05.372Z,47.43
2019-01-23T11:26:34.937Z,46.13
2019-01-23T11:29:04.414Z,47.00
2019-01-23T11:31:32.837Z,46.60
2019-01-23T11:34:01.195Z,50.90
2019-01-23T11:36:29.529Z,43.50
2019-01-23T11:38:57.974Z,49.53
2019-01-23T11:41:28.585Z,46.67
2019-01-23T11:43:58.006Z,47.77
2019-01-23T11:46:26.350Z,50.77
2019-01-23T11:48:56.769Z,47.10
2019-01-23T11:51:27.057Z,43.70
2019-01-23T11:53:55.548Z,52.60
2019-01-23T11:56:23.898Z,46.67
2019-01-23T11:58:52.258Z,46.33
2019-01-23T12:01:27.533Z,44.83
2019-01-23T12:03:52.113Z,43.87
2019-01-23T12:06:20.453Z,51.40
2019-01-23T12:08:49.696Z,54.57
2019-01-23T12:11:18.037Z,48.30
2019-01-23T12:13:46.388Z,42.93
2019-01-23T12:16:14.766Z,48.67
2019-01-23T12:18:43.181Z,40.67
2019-01-23T12:21:11.534Z,44.53
2019-01-23T12:23:39.881Z,45.23
2019-01-23T12:26:08.212Z,42.70
2019-01-23T12:28:36.593Z,44.97
2019-01-23T12:31:06.151Z,45.67
2019-01-23T12:33:34.760Z,41.30
2019-01-23T12:36:03.109Z,36.40
2019-01-23T12:38:31.456Z,43.60
2019-01-23T12:41:00.876Z,41.70
2019-01-23T12:43:29.216Z,44.23
2019-01-23T12:45:58.540Z,44.37
2019-01-23T12:48:26.885Z,32.87
2019-01-23T12:50:55.241Z,40.37
2019-01-23T12:53:23.584Z,39.33
2019-01-23T12:55:53.021Z,40.67
2019-01-23T12:58:21.364Z,38.57
2019-01-23T13:00:49.718Z,39.43
2019-01-23T13:03:18.073Z,43.83
2019-01-23T13:05:46.412Z,37.80
2019-01-23T13:08:15.326Z,37.90
2019-01-23T13:10:43.673Z,33.30
2019-01-23T13:13:12.014Z,35.47
2019-01-23T13:15:42.334Z,42.00
2019-01-23T13:18:10.673Z,41.20
2019-01-23T13:20:39.023Z,41.10
2019-01-23T13:23:07.373Z,41.10
2019-01-23T13:25:40.634Z,37.50
2019-01-23T13:28:05.838Z,39.47
2019-01-23T13:30:35.461Z,39.07
2019-01-23T13:33:03.812Z,37.90
2019-01-23T13:35:33.329Z,37.03
2019-01-23T13:38:02.053Z,37.40
2019-01-23T13:40:31.660Z,37.80
2019-01-23T13:43:01.148Z,37.03
2019-01-23T13:45:30.062Z,34.30
2019-01-23T13:47:58.477Z,36.00
2019-01-23T13:50:28.013Z,37.47
2019-01-23T13:52:57.350Z,42.87
2019-01-23T13:55:28.294Z,35.80
2019-01-23T13:57:57.756Z,37.67
2019-01-23T14:00:33.401Z,42.17
2019-01-23T14:03:02.810Z,36.20
2019-01-23T14:05:31.155Z,38.37
2019-01-23T14:07:59.497Z,48.87
2019-01-23T14:10:27.846Z,40.07
2019-01-23T14:12:56.198Z,42.60
2019-01-23T14:15:30.370Z,39.17
2019-01-23T14:17:58.712Z,37.70
2019-01-23T14:20:27.127Z,34.83
2019-01-23T14:22:56.934Z,44.93
2019-01-23T14:25:26.905Z,38.83
2019-01-23T14:27:55.254Z,41.07
2019-01-23T14:30:31.421Z,37.17
2019-01-23T14:33:00.036Z,37.67
2019-01-23T14:35:28.855Z,38.27
2019-01-23T14:38:00.710Z,38.83
2019-01-23T14:40:30.171Z,41.10
2019-01-23T14:42:58.507Z,39.00
2019-01-23T14:45:28.298Z,41.87
2019-01-23T14:47:56.636Z,37.60
2019-01-23T14:50:25.956Z,39.40
2019-01-23T14:52:55.580Z,42.00
2019-01-23T14:55:23.941Z,39.80
2019-01-23T14:57:52.887Z,37.60
2019-01-23T15:00:25.199Z,40.00
2019-01-23T15:02:54.625Z,34.43
2019-01-23T15:05:22.992Z,34.27
2019-01-23T15:07:51.338Z,34.63
2019-01-23T15:10:21.313Z,34.93
2019-01-23T15:12:49.667Z,45.40
2019-01-23T15:15:18.089Z,39.50
2019-01-23T15:17:46.436Z,37.03
2019-01-23T15:20:17.594Z,37.83
2019-01-23T15:22:45.947Z,36.80
2019-01-23T15:25:14.296Z,39.20
2019-01-23T15:27:42.913Z,35.00
2019-01-23T15:30:13.141Z,36.23
2019-01-23T15:32:41.502Z,38.27
2019-01-23T15:35:10.421Z,37.43
2019-01-23T15:37:38.772Z,31.93
2019-01-23T15:40:11.466Z,33.67
2019-01-23T15:42:39.879Z,34.33
2019-01-23T15:45:09.489Z,41.17
2019-01-23T15:47:37.853Z,38.47
2019-01-23T15:50:07.824Z,31.93
2019-01-23T15:52:36.168Z,35.27
2019-01-23T15:55:07.194Z,32.27
2019-01-23T15:57:35.857Z,32.70
2019-01-23T16:00:05.840Z,35.30
2019-01-23T16:02:34.185Z,31.83
2019-01-23T16:05:02.545Z,39.23
2019-01-23T16:07:30.957Z,34.83
2019-01-23T16:09:59.302Z,31.13
2019-01-23T16:12:27.657Z,37.93
2019-01-23T16:14:55.993Z,36.10
2019-01-23T16:17:24.338Z,31.30
2019-01-23T16:19:52.694Z,36.53
2019-01-23T16:22:21.041Z,39.83
2019-01-23T16:24:49.400Z,39.87
2019-01-23T16:27:17.806Z,37.57
2019-01-23T16:29:46.386Z,34.47
2019-01-23T16:32:14.874Z,38.50
2019-01-23T16:34:43.217Z,34.70
2019-01-23T16:37:11.563Z,44.07
2019-01-23T16:39:40.186Z,40.50
2019-01-23T16:42:08.506Z,39.77
2019-01-23T16:44:36.860Z,34.53
2019-01-23T16:47:05.201Z,38.37
2019-01-23T16:49:33.593Z,43.53
2019-01-23T16:52:01.951Z,39.73
2019-01-23T16:54:30.355Z,38.13
2019-01-23T16:56:58.691Z,36.37
2019-01-23T16:59:27.474Z,38.53
2019-01-23T17:01:55.840Z,35.77
2019-01-23T17:04:24.193Z,39.47
2019-01-23T17:06:52.574Z,39.27
2019-01-23T17:09:20.969Z,40.73
2019-01-23T17:11:49.609Z,38.63
2019-01-23T17:14:17.969Z,39.50
2019-01-23T17:16:46.317Z,39.53
2019-01-23T17:19:14.922Z,41.10
2019-01-23T17:21:43.637Z,52.47
2019-01-23T17:24:12.157Z,44.50
2019-01-23T17:26:40.488Z,37.43
2019-01-23T17:29:08.922Z,40.87
2019-01-23T17:31:37.275Z,43.57
2019-01-23T17:34:05.608Z,56.17
2019-01-23T17:36:33.971Z,44.90
2019-01-23T17:39:03.657Z,44.33
2019-01-23T17:41:33.604Z,46.67
2019-01-23T17:44:02.016Z,41.03
2019-01-23T17:46:30.376Z,42.37
2019-01-23T17:48:58.805Z,43.80
2019-01-23T17:51:28.606Z,36.23
2019-01-23T17:53:56.956Z,39.87
2019-01-23T17:56:25.678Z,41.60
2019-01-23T17:58:54.415Z,40.27
2019-01-23T18:01:24.335Z,37.63
2019-01-23T18:03:53.262Z,36.40
2019-01-23T18:06:21.620Z,43.93
2019-01-23T18:08:50.426Z,35.33
2019-01-23T18:11:18.782Z,39.23
2019-01-23T18:13:47.134Z,41.20
2019-01-23T18:16:15.468Z,37.97
2019-01-23T18:18:43.825Z,41.47
2019-01-23T18:21:12.178Z,37.13
2019-01-23T18:23:40.529Z,45.57
2019-01-23T18:26:08.874Z,42.23
2019-01-23T18:28:37.221Z,43.03
2019-01-23T18:31:13.381Z,46.10
2019-01-23T18:33:46.144Z,38.30
2019-01-23T18:36:32.877Z,36.83
2019-01-23T18:39:03.432Z,42.80
2019-01-23T18:41:37.785Z,43.63
2019-01-23T18:44:13.607Z,38.83
2019-01-23T18:46:44.940Z,41.13
2019-01-23T18:49:31.753Z,45.60
2019-01-23T18:52:07.593Z,43.30
2019-01-23T18:54:36.003Z,39.93
2019-01-23T18:57:05.810Z,40.73
2019-01-23T18:59:34.166Z,37.00
2019-01-23T19:02:02.509Z,45.30
2019-01-23T19:04:30.879Z,38.60
2019-01-23T19:06:59.233Z,43.47
2019-01-23T19:09:27.573Z,42.57
2019-01-23T19:11:55.991Z,37.07
2019-01-23T19:14:27.422Z,44.70
2019-01-23T19:16:55.765Z,40.77
2019-01-23T19:19:24.109Z,47.27
2019-01-23T19:21:55.200Z,51.00
2019-01-23T19:24:22.513Z,39.17
2019-01-23T19:26:51.102Z,39.53
2019-01-23T19:29:20.627Z,41.73
2019-01-23T19:31:48.966Z,46.30
2019-01-23T19:34:17.321Z,48.07
2019-01-23T19:36:45.653Z,41.73
2019-01-23T19:39:14.023Z,45.97
2019-01-23T19:41:42.625Z,43.37
2019-01-23T19:44:10.957Z,48.10
2019-01-23T19:46:40.939Z,36.50
2019-01-23T19:49:09.440Z,46.63
2019-01-23T19:51:37.820Z,56.57
2019-01-23T19:54:06.162Z,50.07
2019-01-23T19:56:34.509Z,51.00
2019-01-23T19:59:02.867Z,48.00
2019-01-23T20:01:31.281Z,49.27
2019-01-23T20:03:59.950Z,51.23
2019-01-23T20:06:28.541Z,49.70
2019-01-23T20:08:56.894Z,52.27
2019-01-23T20:11:25.246Z,57.60
2019-01-23T20:13:53.895Z,51.87
2019-01-23T20:16:22.281Z,51.80
2019-01-23T20:18:51.416Z,51.50
2019-01-23T20:21:19.765Z,49.73
2019-01-23T20:23:49.301Z,46.93
2019-01-23T20:26:17.653Z,48.70
2019-01-23T20:28:45.995Z,48.60
2019-01-23T20:31:14.343Z,45.23
2019-01-23T20:33:42.685Z,47.90
2019-01-23T20:36:11.042Z,52.57
2019-01-23T20:38:39.394Z,46.80
2019-01-23T20:41:07.753Z,47.53
2019-01-23T20:43:36.161Z,53.07
2019-01-23T20:46:04.597Z,53.00
2019-01-23T20:48:32.959Z,47.30
2019-01-23T20:51:01.310Z,53.23
2019-01-23T20:53:29.673Z,50.07
2019-01-23T20:55:58.263Z,50.57
2019-01-23T20:58:26.633Z,56.33
2019-01-23T21:00:54.979Z,54.63
2019-01-23T21:03:23.331Z,52.23
2019-01-23T21:05:52.283Z,53.70
2019-01-23T21:08:20.801Z,52.13
2019-01-23T21:10:49.441Z,50.97
2019-01-23T21:13:18.957Z,50.93
2019-01-23T21:15:47.317Z,54.00
2019-01-23T21:18:15.677Z,50.07
2019-01-23T21:20:44.022Z,52.97
2019-01-23T21:23:12.372Z,55.80
2019-01-23T21:25:40.713Z,51.80
2019-01-23T21:28:09.068Z,50.17
2019-01-23T21:30:37.426Z,51.97
2019-01-23T21:33:05.775Z,54.57
2019-01-23T21:35:34.131Z,53.30
2019-01-23T21:38:02.469Z,50.53
2019-01-23T21:40:30.989Z,54.30
2019-01-23T21:42:59.343Z,53.53
2019-01-23T21:45:27.753Z,57.97
2019-01-23T21:47:56.954Z,52.27
2019-01-23T21:50:25.335Z,54.60
2019-01-23T21:52:54.853Z,56.00
2019-01-23T21:55:24.074Z,57.37
2019-01-23T21:57:52.617Z,54.57
2019-01-23T22:00:25.329Z,52.33
2019-01-23T22:02:54.448Z,49.50
2019-01-23T22:05:22.791Z,54.83
2019-01-23T22:07:51.147Z,54.30
2019-01-23T22:10:19.491Z,51.93
2019-01-23T22:12:47.837Z,52.50
2019-01-23T22:15:17.570Z,56.07
2019-01-23T22:17:46.774Z,52.53
2019-01-23T22:20:18.925Z,49.33
2019-01-23T22:22:47.273Z,56.30
2019-01-23T22:25:16.899Z,48.37
2019-01-23T22:27:45.253Z,54.40
2019-01-23T22:30:15.228Z,53.87
2019-01-23T22:32:44.611Z,54.87
2019-01-23T22:35:12.916Z,53.60
2019-01-23T22:37:41.273Z,52.27
2019-01-23T22:40:11.091Z,51.90
2019-01-23T22:42:39.504Z,52.27
2019-01-23T22:45:09.425Z,53.67
2019-01-23T22:47:37.789Z,50.33
2019-01-23T22:50:13.897Z,50.23
2019-01-23T22:52:42.255Z,47.03
2019-01-23T22:55:10.603Z,52.83
2019-01-23T22:57:38.980Z,49.37
2019-01-23T23:00:25.773Z,50.30
2019-01-23T23:02:55.725Z,47.40
2019-01-23T23:05:24.099Z,52.30
2019-01-23T23:07:52.514Z,48.37
2019-01-23T23:10:20.861Z,51.77
2019-01-23T23:12:49.221Z,54.73
2019-01-23T23:15:17.566Z,58.20
2019-01-23T23:17:45.919Z,48.67
2019-01-23T23:20:14.274Z,48.00
2019-01-23T23:22:42.616Z,52.50
2019-01-23T23:25:11.045Z,52.93
2019-01-23T23:27:39.748Z,55.93
2019-01-23T23:30:15.456Z,52.10
2019-01-23T23:32:44.977Z,59.73
2019-01-23T23:35:13.325Z,56.30
2019-01-23T23:37:41.673Z,49.40
2019-01-23T23:40:11.654Z,54.13
2019-01-23T23:42:40.001Z,48.80
2019-01-23T23:45:09.997Z,56.17
2019-01-23T23:47:38.341Z,51.33
2019-01-23T23:50:08.366Z,53.10
2019-01-23T23:52:36.718Z,54.40
2019-01-23T23:55:06.029Z,52.47
2019-01-23T23:57:35.448Z,52.33
